createdAt,value
2018-03-28T06:00:28.979Z,88.00
2018-03-28T06:02:56.548Z,87.70
2018-03-28T06:05:24.093Z,87.50
2018-03-28T06:07:51.735Z,87.00
2018-03-28T06:10:19.288Z,87.00
2018-03-28T06:12:46.833Z,86.80
2018-03-28T06:15:14.366Z,85.40
2018-03-28T06:17:42.466Z,85.50
2018-03-28T06:20:10.039Z,84.90
2018-03-28T06:22:37.641Z,84.80
2018-03-28T06:25:05.942Z,83.80
2018-03-28T06:27:34.277Z,82.70
2018-03-28T06:30:01.806Z,82.00
2018-03-28T06:32:29.362Z,82.60
2018-03-28T06:34:56.916Z,82.40
2018-03-28T06:37:25.245Z,83.10
2018-03-28T06:39:53.541Z,83.10
2018-03-28T06:42:21.087Z,83.10
2018-03-28T06:44:48.654Z,83.40
2018-03-28T06:47:16.896Z,83.20
2018-03-28T06:49:44.463Z,82.30
2018-03-28T06:52:11.996Z,82.60
2018-03-28T06:54:39.552Z,82.80
2018-03-28T06:57:07.128Z,81.40
2018-03-28T06:59:34.664Z,81.90
2018-03-28T07:02:03.039Z,81.20
2018-03-28T07:04:31.369Z,80.50
2018-03-28T07:06:58.900Z,80.50
2018-03-28T07:09:27.021Z,80.50
2018-03-28T07:11:56.885Z,80.50
2018-03-28T07:14:28.172Z,79.80
2018-03-28T07:16:58.400Z,80.40
2018-03-28T07:19:26.191Z,80.90
2018-03-28T07:21:53.768Z,80.20
2018-03-28T07:24:22.767Z,80.80
2018-03-28T07:26:50.357Z,80.30
2018-03-28T07:29:18.010Z,80.50
2018-03-28T07:31:45.765Z,79.00
2018-03-28T07:34:13.479Z,77.30
2018-03-28T07:36:41.030Z,77.00
2018-03-28T07:39:09.375Z,77.60
2018-03-28T07:41:38.043Z,77.60
2018-03-28T07:44:06.166Z,77.30
2018-03-28T07:46:33.753Z,77.20
2018-03-28T07:49:01.327Z,77.50
2018-03-28T07:51:29.440Z,77.80
2018-03-28T07:53:58.726Z,76.60
2018-03-28T07:56:27.244Z,76.50
2018-03-28T07:58:55.549Z,77.00
2018-03-28T08:01:23.120Z,77.00
2018-03-28T08:03:50.702Z,76.90
2018-03-28T08:06:18.546Z,75.80
2018-03-28T08:08:46.122Z,75.30
2018-03-28T08:11:13.672Z,75.30
2018-03-28T08:13:44.831Z,74.00
2018-03-28T08:16:12.429Z,74.90
2018-03-28T08:18:40.010Z,74.00
2018-03-28T08:21:07.576Z,74.20
2018-03-28T08:23:35.104Z,74.00
2018-03-28T08:26:03.408Z,74.30
2018-03-28T08:28:30.954Z,74.90
2018-03-28T08:30:59.412Z,74.20
2018-03-28T08:33:26.975Z,74.30
2018-03-28T08:35:55.337Z,74.40
2018-03-28T08:38:22.873Z,74.40
2018-03-28T08:40:51.413Z,74.60
2018-03-28T08:43:19.740Z,73.80
2018-03-28T08:45:47.282Z,73.70
2018-03-28T08:48:14.845Z,73.50
2018-03-28T08:50:42.415Z,73.80
2018-03-28T08:53:10.754Z,74.10
2018-03-28T08:55:38.296Z,74.00
2018-03-28T08:58:07.281Z,73.30
2018-03-28T09:00:35.622Z,73.10
2018-03-28T09:03:03.953Z,74.10
2018-03-28T09:05:31.846Z,74.00
2018-03-28T09:07:59.483Z,73.80
2018-03-28T09:10:27.144Z,73.00
2018-03-28T09:12:54.858Z,72.60
2018-03-28T09:15:22.401Z,72.30
2018-03-28T09:17:50.875Z,72.20
2018-03-28T09:20:18.432Z,71.30
2018-03-28T09:22:46.108Z,70.00
2018-03-28T09:25:13.651Z,68.30
2018-03-28T09:27:42.053Z,68.80
2018-03-28T09:30:09.597Z,68.70
2018-03-28T09:32:37.160Z,67.20
2018-03-28T09:35:05.688Z,66.80
2018-03-28T09:37:34.006Z,65.40
2018-03-28T09:40:01.670Z,64.90
2018-03-28T09:42:29.233Z,61.70
2018-03-28T09:44:56.837Z,62.90
2018-03-28T09:47:25.240Z,61.80
2018-03-28T09:49:53.608Z,60.90
2018-03-28T09:52:22.891Z,59.60
2018-03-28T09:54:51.288Z,59.60
2018-03-28T09:57:19.633Z,57.30
2018-03-28T09:59:47.196Z,57.20
2018-03-28T10:02:14.747Z,56.90
2018-03-28T10:04:47.955Z,57.10
2018-03-28T10:07:16.067Z,56.20
2018-03-28T10:09:43.755Z,57.10
2018-03-28T10:12:11.316Z,56.50
2018-03-28T10:14:39.400Z,55.90
2018-03-28T10:17:07.869Z,55.70
2018-03-28T10:19:36.436Z,56.20
2018-03-28T10:22:04.054Z,56.50
2018-03-28T10:24:31.673Z,55.00
2018-03-28T10:26:59.316Z,54.90
2018-03-28T10:29:26.994Z,53.70
2018-03-28T10:31:54.548Z,53.90
2018-03-28T10:34:22.094Z,53.80
2018-03-28T10:36:51.089Z,53.60
2018-03-28T10:39:18.635Z,54.00
2018-03-28T10:41:46.934Z,54.60
2018-03-28T10:44:14.938Z,54.60
2018-03-28T10:46:43.892Z,54.00
2018-03-28T10:49:11.455Z,54.20
2018-03-28T10:51:39.003Z,54.40
2018-03-28T10:54:06.615Z,53.10
2018-03-28T10:56:34.966Z,54.20
2018-03-28T10:59:02.537Z,54.20
2018-03-28T11:01:30.150Z,54.30
2018-03-28T11:03:58.480Z,54.70
2018-03-28T11:06:26.086Z,54.60
2018-03-28T11:08:54.407Z,55.10
2018-03-28T11:11:21.992Z,55.10
2018-03-28T11:13:50.492Z,55.70
2018-03-28T11:16:18.904Z,55.50
2018-03-28T11:18:47.155Z,55.60
2018-03-28T11:21:15.910Z,56.20
2018-03-28T11:23:44.044Z,56.10
2018-03-28T11:26:12.514Z,57.00
2018-03-28T11:28:41.346Z,57.00
2018-03-28T11:31:08.932Z,57.90
2018-03-28T11:33:37.880Z,57.50
2018-03-28T11:36:06.370Z,57.50
2018-03-28T11:38:35.540Z,58.10
2018-03-28T11:41:04.039Z,58.00
2018-03-28T11:43:32.010Z,57.70
2018-03-28T11:45:59.687Z,58.20
2018-03-28T11:48:27.333Z,58.80
2018-03-28T11:50:54.915Z,58.90
2018-03-28T11:53:23.422Z,60.00
2018-03-28T11:55:51.070Z,60.80
2018-03-28T11:58:20.695Z,59.90
2018-03-28T12:00:48.324Z,59.90
2018-03-28T12:03:17.093Z,59.70
2018-03-28T12:05:44.640Z,59.10
2018-03-28T12:08:12.214Z,58.70
2018-03-28T12:10:39.781Z,59.50
2018-03-28T12:13:07.334Z,58.80
2018-03-28T12:15:35.744Z,58.80
2018-03-28T12:18:03.388Z,58.70
2018-03-28T12:20:30.931Z,59.10
2018-03-28T12:22:58.491Z,58.30
2018-03-28T12:25:26.024Z,58.60
2018-03-28T12:27:56.321Z,58.20
2018-03-28T12:30:24.763Z,58.20
2018-03-28T12:32:52.329Z,58.40
2018-03-28T12:35:19.981Z,59.00
2018-03-28T12:37:47.519Z,59.60
2018-03-28T12:40:15.097Z,60.40
2018-03-28T12:42:42.652Z,60.80
2018-03-28T12:45:10.216Z,60.90
2018-03-28T12:47:37.776Z,61.30
2018-03-28T12:50:06.625Z,61.80
2018-03-28T12:52:34.138Z,62.80
2018-03-28T12:55:01.746Z,62.80
2018-03-28T12:57:30.072Z,62.40
2018-03-28T12:59:57.669Z,62.40
2018-03-28T13:02:25.211Z,62.30
2018-03-28T13:04:52.757Z,62.60
2018-03-28T13:07:20.313Z,63.50
2018-03-28T13:09:47.868Z,62.50
2018-03-28T13:12:15.414Z,63.40
2018-03-28T13:14:43.009Z,62.60
2018-03-28T13:17:10.556Z,62.40
2018-03-28T13:19:38.097Z,62.70
2018-03-28T13:22:06.583Z,62.50
2018-03-28T13:24:34.792Z,62.30
2018-03-28T13:27:02.346Z,63.00
2018-03-28T13:29:29.899Z,62.70
2018-03-28T13:31:57.447Z,62.50
2018-03-28T13:34:25.030Z,62.70
2018-03-28T13:36:52.581Z,63.20
2018-03-28T13:39:20.116Z,62.60
2018-03-28T13:41:47.777Z,63.30
2018-03-28T13:44:15.333Z,62.90
2018-03-28T13:46:42.995Z,64.30
2018-03-28T13:49:11.222Z,64.50
2018-03-28T13:51:38.769Z,65.60
2018-03-28T13:54:06.365Z,66.00
2018-03-28T13:56:34.669Z,71.40
2018-03-28T13:59:02.223Z,71.40
2018-03-28T14:01:29.760Z,71.60
2018-03-28T14:03:57.323Z,72.90
2018-03-28T14:06:24.879Z,73.90
2018-03-28T14:08:52.454Z,74.70
2018-03-28T14:11:19.999Z,75.40
2018-03-28T14:13:48.345Z,76.20
2018-03-28T14:16:15.896Z,76.10
2018-03-28T14:18:43.457Z,75.60
2018-03-28T14:21:11.040Z,76.50
2018-03-28T14:23:39.354Z,76.90
2018-03-28T14:26:06.916Z,76.70
2018-03-28T14:28:34.476Z,77.90
2018-03-28T14:31:02.028Z,79.80
2018-03-28T14:33:29.599Z,79.70
2018-03-28T14:38:31.095Z,81.20
2018-03-28T14:40:58.688Z,82.00
2018-03-28T14:43:26.991Z,82.10
2018-03-28T14:45:54.544Z,82.10
2018-03-28T14:48:22.231Z,83.00
2018-03-28T14:50:49.759Z,82.80
2018-03-28T14:53:18.072Z,83.30
2018-03-28T14:55:45.610Z,83.30
2018-03-28T14:58:13.185Z,84.70
2018-03-28T15:00:40.755Z,83.40
2018-03-28T15:03:08.320Z,84.30
2018-03-28T15:05:36.774Z,84.80
2018-03-28T15:08:04.336Z,84.60
2018-03-28T15:10:31.876Z,84.10
2018-03-28T15:13:00.227Z,86.10
2018-03-28T15:15:27.803Z,86.10
2018-03-28T15:17:56.153Z,85.60
2018-03-28T15:20:23.708Z,85.60
2018-03-28T15:22:51.273Z,86.60
2018-03-28T15:25:18.834Z,87.10
2018-03-28T15:27:46.464Z,86.10
2018-03-28T15:30:14.032Z,87.10
2018-03-28T15:32:41.656Z,86.90
2018-03-28T15:35:09.958Z,86.80
2018-03-28T15:37:37.513Z,86.10
2018-03-28T15:40:05.049Z,87.30
2018-03-28T15:42:33.379Z,88.50
2018-03-28T15:45:01.848Z,88.40
2018-03-28T15:47:29.441Z,89.00
2018-03-28T15:49:56.990Z,88.90
2018-03-28T15:52:26.352Z,88.80
2018-03-28T15:54:53.889Z,88.20
2018-03-28T15:57:22.200Z,89.40
2018-03-28T15:59:49.785Z,89.20
2018-03-28T16:02:17.329Z,89.00
2018-03-28T16:04:44.875Z,89.50
2018-03-28T16:07:12.417Z,89.80
2018-03-28T16:09:39.987Z,89.70
2018-03-28T16:12:07.521Z,89.90
2018-03-28T16:14:35.090Z,89.00
2018-03-28T16:17:02.679Z,89.10
2018-03-28T16:19:30.228Z,88.50
2018-03-28T16:21:57.785Z,88.90
2018-03-28T16:24:25.338Z,89.40
2018-03-28T16:26:52.881Z,89.20
2018-03-28T16:29:21.189Z,89.90
2018-03-28T16:31:48.739Z,89.90
2018-03-28T16:34:16.713Z,90.20
2018-03-28T16:36:45.105Z,90.30
2018-03-28T16:39:12.666Z,90.60
2018-03-28T16:41:40.209Z,90.30
2018-03-28T16:44:07.772Z,90.60
2018-03-28T16:46:35.328Z,90.90
2018-03-28T16:49:02.881Z,90.80
2018-03-28T16:51:30.426Z,90.50
2018-03-28T16:53:58.035Z,90.60
2018-03-28T16:56:25.676Z,90.30
2018-03-28T16:58:53.449Z,90.80
2018-03-28T17:01:21.024Z,90.60
2018-03-28T17:03:48.611Z,90.50
2018-03-28T17:06:16.950Z,91.00
2018-03-28T17:08:44.556Z,90.90
2018-03-28T17:11:13.809Z,90.60
2018-03-28T17:13:41.353Z,90.70
2018-03-28T17:16:08.896Z,90.60
2018-03-28T17:18:36.565Z,90.80
2018-03-28T17:21:04.119Z,90.70
2018-03-28T17:23:31.659Z,90.80
2018-03-28T17:26:00.006Z,91.00
2018-03-28T17:28:28.403Z,91.00
2018-03-28T17:30:55.955Z,90.80
2018-03-28T17:33:23.501Z,91.10
2018-03-28T17:35:51.108Z,90.50
2018-03-28T17:40:54.084Z,90.90
2018-03-28T17:43:21.638Z,90.80
2018-03-28T17:45:49.272Z,91.00
2018-03-28T17:48:16.821Z,91.10
2018-03-28T17:50:44.391Z,90.90
2018-03-28T17:53:12.777Z,90.80
2018-03-28T17:55:40.314Z,90.60
2018-03-28T17:58:07.881Z,90.60
2018-03-28T18:00:35.422Z,90.50
2018-03-28T18:03:02.962Z,90.40
2018-03-28T18:05:31.322Z,90.90
2018-03-28T18:07:59.710Z,90.90
2018-03-28T18:10:27.294Z,90.90
2018-03-28T18:12:54.968Z,90.80
2018-03-28T18:15:22.584Z,90.80
2018-03-28T18:17:50.190Z,90.70
2018-03-28T18:20:19.982Z,90.90
2018-03-28T18:22:47.557Z,90.90
2018-03-28T18:25:15.151Z,90.90
2018-03-28T18:27:42.745Z,91.00
2018-03-28T18:30:10.329Z,90.80
2018-03-28T18:32:37.957Z,90.90
2018-03-28T18:35:05.810Z,91.20
2018-03-28T18:37:35.275Z,91.20
2018-03-28T18:40:02.817Z,91.30
2018-03-28T18:42:30.382Z,90.80
2018-03-28T18:44:57.929Z,91.20
2018-03-28T18:47:25.487Z,91.30
2018-03-28T18:49:53.805Z,89.80
2018-03-28T18:52:21.381Z,89.80
2018-03-28T18:54:48.927Z,90.10
2018-03-28T18:57:16.461Z,91.00
2018-03-28T18:59:44.071Z,89.70
2018-03-28T19:02:11.631Z,89.80
2018-03-28T19:04:40.049Z,89.10
2018-03-28T19:07:08.407Z,89.20
2018-03-28T19:09:36.723Z,89.70
2018-03-28T19:12:04.280Z,89.70
2018-03-28T19:14:31.866Z,89.90
2018-03-28T19:16:59.396Z,89.20
2018-03-28T19:19:26.959Z,89.60
2018-03-28T19:21:55.220Z,89.20
2018-03-28T19:24:22.756Z,89.50
2018-03-28T19:26:51.557Z,89.40
2018-03-28T19:29:20.475Z,90.00
2018-03-28T19:31:48.005Z,89.40
2018-03-28T19:34:16.312Z,89.70
2018-03-28T19:36:43.845Z,89.60
2018-03-28T19:39:12.905Z,90.00
2018-03-28T19:41:40.450Z,90.00
2018-03-28T19:44:08.757Z,90.10
2018-03-28T19:46:37.062Z,90.00
2018-03-28T19:49:04.649Z,89.80
2018-03-28T19:51:32.220Z,89.90
2018-03-28T19:53:59.810Z,90.10
2018-03-28T19:56:27.511Z,90.00
2018-03-28T19:58:55.065Z,90.20
2018-03-28T20:01:22.654Z,90.20
2018-03-28T20:03:50.294Z,90.30
2018-03-28T20:06:17.901Z,90.30
2018-03-28T20:08:45.506Z,90.40
2018-03-28T20:11:13.819Z,90.80
2018-03-28T20:13:42.384Z,90.70
2018-03-28T20:16:09.928Z,90.90
2018-03-28T20:18:38.232Z,91.10
2018-03-28T20:21:05.884Z,91.10
2018-03-28T20:23:33.415Z,91.10
2018-03-28T20:26:01.772Z,91.00
2018-03-28T20:28:29.306Z,90.90
2018-03-28T20:30:56.861Z,91.20
2018-03-28T20:33:24.413Z,91.20
2018-03-28T20:35:51.992Z,91.20
2018-03-28T20:38:20.512Z,91.60
2018-03-28T20:40:48.840Z,91.50
2018-03-28T20:43:17.245Z,90.30
2018-03-28T20:45:44.795Z,90.30
2018-03-28T20:48:12.344Z,90.40
2018-03-28T20:50:39.877Z,90.20
2018-03-28T20:53:07.436Z,90.20
2018-03-28T20:55:34.964Z,90.10
2018-03-28T20:58:03.303Z,88.40
2018-03-28T21:00:30.849Z,88.40
2018-03-28T21:02:58.373Z,88.00
2018-03-28T21:05:25.914Z,88.30
2018-03-28T21:07:54.241Z,88.80
2018-03-28T21:10:21.797Z,88.80
2018-03-28T21:12:49.345Z,88.80
2018-03-28T21:15:16.889Z,89.20
2018-03-28T21:17:44.430Z,89.50
2018-03-28T21:20:12.813Z,90.10
2018-03-28T21:22:41.153Z,89.70
2018-03-28T21:25:08.721Z,89.70
2018-03-28T21:27:36.288Z,89.70
2018-03-28T21:30:03.845Z,89.10
2018-03-28T21:32:31.369Z,88.60
2018-03-28T21:34:59.035Z,88.40
2018-03-28T21:37:26.564Z,88.10
2018-03-28T21:39:54.111Z,87.80
2018-03-28T21:42:22.494Z,88.10
2018-03-28T21:44:50.899Z,88.10
2018-03-28T21:47:18.457Z,88.10
2018-03-28T21:49:45.994Z,88.80
2018-03-28T21:52:14.373Z,88.10
2018-03-28T21:54:43.303Z,88.40
2018-03-28T21:57:10.857Z,88.40
2018-03-28T21:59:38.385Z,88.30
2018-03-28T22:02:05.949Z,87.80
2018-03-28T22:04:33.515Z,87.90
2018-03-28T22:07:01.118Z,88.90
2018-03-28T22:09:28.748Z,88.70
2018-03-28T22:11:56.293Z,89.30
2018-03-28T22:14:23.841Z,88.80
2018-03-28T22:16:52.195Z,87.90
2018-03-28T22:19:19.719Z,87.90
2018-03-28T22:21:47.260Z,87.30
2018-03-28T22:24:14.820Z,86.10
2018-03-28T22:26:42.423Z,84.10
2018-03-28T22:29:10.028Z,83.70
2018-03-28T22:31:37.596Z,84.40
2018-03-28T22:34:05.640Z,82.70
2018-03-28T22:36:33.956Z,83.30
2018-03-28T22:39:01.533Z,83.30
2018-03-28T22:41:29.097Z,82.90
2018-03-28T22:43:56.642Z,83.30
2018-03-28T22:46:24.198Z,83.10
2018-03-28T22:48:51.748Z,82.90
2018-03-28T22:51:19.285Z,82.40
2018-03-28T22:53:46.841Z,81.50
2018-03-28T22:56:15.154Z,78.80
2018-03-28T22:58:42.736Z,78.70
